createdAt,value
2019-05-13T00:00:14.124Z,81.70
2019-05-13T00:02:40.508Z,81.20
2019-05-13T00:05:07.661Z,80.80
2019-05-13T00:07:34.321Z,81.10
2019-05-13T00:10:00.855Z,81.80
2019-05-13T00:12:27.064Z,81.10
2019-05-13T00:14:53.968Z,80.90
2019-05-13T00:17:20.750Z,80.90
2019-05-13T00:19:47.429Z,80.80
2019-05-13T00:22:14.080Z,80.50
2019-05-13T00:24:41.065Z,80.10
2019-05-13T00:27:07.316Z,80.20
2019-05-13T00:29:34.250Z,80.50
2019-05-13T00:32:00.603Z,81.70
2019-05-13T00:34:27.313Z,82.60
2019-05-13T00:37:07.320Z,82.90
2019-05-13T00:39:24.438Z,82.50
2019-05-13T00:41:50.269Z,81.00
2019-05-13T00:44:16.629Z,79.50
2019-05-13T00:46:44.135Z,80.30
2019-05-13T00:49:13.022Z,80.50
2019-05-13T00:51:38.887Z,80.20
2019-05-13T00:54:06.698Z,80.40
2019-05-13T00:56:34.480Z,80.60
2019-05-13T00:59:03.534Z,80.50
2019-05-13T01:01:29.286Z,80.70
2019-05-13T01:03:55.920Z,80.50
2019-05-13T01:06:23.691Z,79.70
2019-05-13T01:08:50.427Z,80.30
2019-05-13T01:11:17.051Z,80.30
2019-05-13T01:13:43.702Z,80.40
2019-05-13T01:16:10.416Z,79.70
2019-05-13T01:18:36.992Z,79.60
2019-05-13T01:21:04.578Z,80.30
2019-05-13T01:23:31.073Z,80.00
2019-05-13T01:25:57.885Z,79.60
2019-05-13T01:28:24.370Z,79.80
2019-05-13T01:30:50.979Z,80.80
2019-05-13T01:33:17.648Z,81.50
2019-05-13T01:35:44.720Z,82.00
2019-05-13T01:38:13.483Z,81.70
2019-05-13T01:40:39.982Z,82.50
2019-05-13T01:43:06.669Z,83.20
2019-05-13T01:45:34.020Z,84.40
2019-05-13T01:48:01.284Z,84.80
2019-05-13T01:50:27.867Z,84.00
2019-05-13T01:52:54.193Z,82.80
2019-05-13T01:55:20.656Z,81.10
2019-05-13T01:57:47.266Z,80.20
2019-05-13T02:00:15.374Z,79.90
2019-05-13T02:02:44.192Z,80.70
2019-05-13T02:05:10.155Z,81.50
2019-05-13T02:07:36.722Z,83.00
2019-05-13T02:10:05.047Z,83.90
2019-05-13T02:12:33.877Z,84.70
2019-05-13T02:14:59.484Z,85.40
2019-05-13T02:17:26.960Z,86.00
2019-05-13T02:19:54.046Z,85.40
2019-05-13T02:22:20.660Z,84.10
2019-05-13T02:24:47.262Z,84.80
2019-05-13T02:27:14.202Z,86.20
2019-05-13T02:29:40.972Z,87.10
2019-05-13T02:32:07.620Z,86.00
2019-05-13T02:34:34.365Z,84.20
2019-05-13T02:37:03.292Z,83.50
2019-05-13T02:39:28.755Z,83.00
2019-05-13T02:41:54.994Z,83.10
2019-05-13T02:44:22.631Z,83.60
2019-05-13T02:46:52.288Z,84.60
2019-05-13T02:49:17.462Z,84.50
2019-05-13T02:51:43.973Z,84.50
2019-05-13T02:54:12.351Z,84.70
2019-05-13T02:56:41.575Z,84.50
2019-05-13T02:59:07.169Z,84.20
2019-05-13T03:01:33.825Z,84.20
2019-05-13T03:04:03.167Z,84.90
2019-05-13T03:06:28.769Z,84.70
2019-05-13T03:08:55.363Z,86.20
2019-05-13T03:11:22.839Z,86.50
2019-05-13T03:13:52.618Z,85.80
2019-05-13T03:16:22.899Z,85.20
2019-05-13T03:18:47.888Z,84.80
2019-05-13T03:21:14.290Z,85.00
2019-05-13T03:23:43.953Z,85.40
2019-05-13T03:26:08.810Z,85.10
2019-05-13T03:28:35.555Z,85.20
2019-05-13T03:31:06.735Z,85.30
2019-05-13T03:33:35.904Z,85.30
2019-05-13T03:35:58.237Z,85.10
2019-05-13T03:38:24.957Z,85.50
2019-05-13T03:40:53.811Z,85.80
2019-05-13T03:43:22.918Z,85.50
2019-05-13T03:45:52.633Z,85.00
2019-05-13T03:48:23.327Z,85.30
2019-05-13T03:50:49.306Z,86.30
2019-05-13T03:53:15.533Z,88.00
2019-05-13T03:55:43.373Z,87.70
2019-05-13T03:58:13.112Z,87.10
2019-05-13T04:00:38.748Z,86.70
2019-05-13T04:03:05.362Z,86.60
2019-05-13T04:05:33.420Z,86.90
2019-05-13T04:08:03.086Z,86.60
2019-05-13T04:10:28.897Z,86.40
2019-05-13T04:12:55.603Z,85.70
2019-05-13T04:15:23.732Z,85.30
2019-05-13T04:17:53.185Z,85.70
2019-05-13T04:20:18.620Z,85.70
2019-05-13T04:22:45.437Z,85.80
2019-05-13T04:25:12.801Z,85.90
2019-05-13T04:27:42.731Z,85.40
2019-05-13T04:30:08.962Z,86.00
2019-05-13T04:32:35.687Z,86.30
2019-05-13T04:35:04.213Z,86.10
2019-05-13T04:37:32.894Z,85.70
2019-05-13T04:39:59.204Z,85.40
2019-05-13T04:42:25.626Z,86.10
2019-05-13T04:44:53.188Z,85.60
2019-05-13T04:47:22.694Z,85.70
2019-05-13T04:49:48.095Z,85.50
2019-05-13T04:52:14.759Z,85.10
2019-05-13T04:54:43.677Z,85.70
2019-05-13T04:57:12.370Z,85.40
2019-05-13T04:59:44.185Z,85.10
2019-05-13T05:02:22.070Z,84.90
2019-05-13T05:05:03.269Z,84.80
2019-05-13T05:07:32.746Z,84.10
2019-05-13T05:10:17.757Z,84.00
2019-05-13T05:13:12.831Z,84.60
2019-05-13T05:15:54.533Z,85.40
2019-05-13T05:18:42.032Z,85.50
2019-05-13T05:21:22.853Z,85.30
2019-05-13T05:24:08.170Z,84.80
2019-05-13T05:26:56.215Z,84.40
2019-05-13T05:29:58.138Z,84.60
2019-05-13T05:32:47.770Z,85.40
2019-05-13T05:35:35.589Z,85.00
2019-05-13T05:38:40.409Z,84.80
2019-05-13T05:41:12.155Z,83.90
2019-05-13T05:43:45.177Z,84.40
2019-05-13T05:46:12.106Z,83.80
2019-05-13T05:48:42.050Z,84.10
2019-05-13T05:51:09.054Z,84.00
2019-05-13T05:53:39.099Z,84.80
2019-05-13T05:56:06.015Z,84.00
2019-05-13T05:58:33.600Z,83.90
2019-05-13T06:01:02.683Z,82.80
2019-05-13T06:03:32.771Z,82.50
2019-05-13T06:06:01.804Z,79.10
2019-05-13T06:08:28.001Z,72.60
2019-05-13T06:10:54.632Z,66.80
2019-05-13T06:13:21.786Z,64.50
2019-05-13T06:15:48.290Z,60.60
2019-05-13T06:18:14.663Z,59.20
2019-05-13T06:20:41.825Z,56.80
2019-05-13T06:23:08.338Z,57.30
2019-05-13T06:25:34.848Z,56.10
2019-05-13T06:28:01.798Z,57.00
2019-05-13T06:30:28.978Z,55.10
2019-05-13T06:32:56.343Z,54.70
2019-05-13T06:35:23.091Z,54.80
2019-05-13T06:37:51.885Z,57.20
2019-05-13T06:40:17.983Z,57.70
2019-05-13T06:42:44.611Z,56.00
2019-05-13T06:45:12.519Z,55.50
2019-05-13T06:47:41.166Z,53.50
2019-05-13T06:50:07.531Z,51.40
2019-05-13T06:52:34.047Z,51.60
2019-05-13T06:55:02.770Z,51.20
2019-05-13T06:57:32.263Z,50.70
2019-05-13T06:59:58.437Z,50.20
2019-05-13T07:02:25.154Z,46.90
2019-05-13T07:04:51.852Z,47.10
2019-05-13T07:07:18.482Z,47.30
2019-05-13T07:09:44.990Z,48.50
2019-05-13T07:12:11.659Z,46.30
2019-05-13T07:14:38.261Z,45.10
2019-05-13T07:17:04.512Z,45.00
2019-05-13T07:19:32.404Z,44.90
2019-05-13T07:21:59.026Z,46.10
2019-05-13T07:24:25.259Z,45.50
2019-05-13T07:26:52.458Z,45.50
2019-05-13T07:29:19.765Z,45.00
2019-05-13T07:31:46.421Z,43.50
2019-05-13T07:34:13.035Z,43.40
2019-05-13T07:36:42.142Z,45.40
2019-05-13T07:39:08.359Z,43.50
2019-05-13T07:41:39.295Z,41.40
2019-05-13T07:44:22.905Z,41.00
2019-05-13T07:46:52.079Z,40.90
2019-05-13T07:49:17.477Z,40.00
2019-05-13T07:51:44.103Z,39.60
2019-05-13T07:54:11.360Z,38.90
2019-05-13T07:56:38.603Z,39.30
2019-05-13T07:59:04.876Z,40.00
2019-05-13T08:01:32.700Z,38.90
2019-05-13T08:04:01.480Z,37.40
2019-05-13T08:06:27.598Z,37.30
2019-05-13T08:08:54.258Z,37.10
2019-05-13T08:11:22.416Z,36.10
2019-05-13T08:13:51.569Z,35.70
2019-05-13T08:16:17.442Z,33.30
2019-05-13T08:19:03.674Z,34.50
2019-05-13T08:21:32.071Z,35.00
2019-05-13T08:23:58.074Z,35.10
2019-05-13T08:26:24.355Z,34.50
2019-05-13T08:29:00.221Z,34.40
2019-05-13T08:31:21.420Z,34.20
2019-05-13T08:33:46.844Z,35.60
2019-05-13T08:36:13.493Z,33.80
2019-05-13T08:38:42.960Z,33.20
2019-05-13T08:41:09.917Z,32.50
2019-05-13T08:43:36.098Z,32.60
2019-05-13T08:46:02.998Z,31.60
2019-05-13T08:48:29.276Z,32.80
2019-05-13T08:50:55.758Z,33.10
2019-05-13T08:53:22.197Z,33.40
2019-05-13T08:55:48.631Z,33.10
2019-05-13T08:58:14.972Z,31.90
2019-05-13T09:00:48.180Z,30.90
2019-05-13T09:03:16.188Z,32.90
2019-05-13T09:05:42.609Z,32.40
2019-05-13T09:08:11.399Z,32.10
2019-05-13T09:10:37.514Z,31.20
2019-05-13T09:13:03.755Z,31.40
2019-05-13T09:15:31.654Z,31.10
2019-05-13T09:17:58.625Z,32.00
2019-05-13T09:20:24.994Z,31.90
2019-05-13T09:22:51.580Z,30.80
2019-05-13T09:25:18.120Z,29.70
2019-05-13T09:27:44.795Z,29.40
2019-05-13T09:30:31.610Z,27.80
2019-05-13T09:32:58.134Z,28.90
2019-05-13T09:35:24.856Z,27.50
2019-05-13T09:37:51.679Z,27.10
2019-05-13T09:40:18.015Z,28.10
2019-05-13T09:42:51.022Z,28.30
2019-05-13T09:45:13.259Z,29.00
2019-05-13T09:47:41.717Z,28.60
2019-05-13T09:50:08.928Z,30.20
2019-05-13T09:52:35.200Z,29.60
2019-05-13T09:55:03.449Z,27.70
2019-05-13T09:57:31.999Z,28.50
2019-05-13T09:59:57.785Z,28.80
2019-05-13T10:02:24.321Z,28.10
2019-05-13T10:04:51.670Z,27.10
2019-05-13T10:07:18.029Z,27.10
2019-05-13T10:09:48.213Z,28.70
2019-05-13T10:12:12.732Z,28.70
2019-05-13T10:14:39.127Z,28.90
2019-05-13T10:17:06.750Z,28.90
2019-05-13T10:19:33.319Z,29.80
2019-05-13T10:21:59.768Z,28.70
2019-05-13T10:24:26.022Z,27.70
2019-05-13T10:26:52.876Z,27.20
2019-05-13T10:29:22.212Z,26.80
2019-05-13T10:31:48.481Z,25.20
2019-05-13T10:34:14.812Z,24.70
2019-05-13T10:36:42.100Z,24.80
2019-05-13T10:39:08.919Z,24.90
2019-05-13T10:41:35.293Z,25.60
2019-05-13T10:44:03.047Z,23.90
2019-05-13T10:46:31.975Z,24.20
2019-05-13T10:48:57.677Z,25.30
2019-05-13T10:51:24.036Z,25.60
2019-05-13T10:53:52.990Z,25.10
2019-05-13T10:56:18.609Z,25.30
2019-05-13T10:58:44.885Z,26.60
2019-05-13T11:01:11.801Z,26.00
2019-05-13T11:03:38.548Z,25.90
2019-05-13T11:06:04.996Z,25.40
2019-05-13T11:08:33.047Z,25.50
2019-05-13T11:11:02.092Z,25.60
2019-05-13T11:13:47.857Z,25.60
2019-05-13T11:15:58.299Z,24.30
2019-05-13T11:18:24.904Z,24.90
2019-05-13T11:20:51.131Z,24.20
2019-05-13T11:23:17.382Z,24.00
2019-05-13T11:25:43.647Z,24.20
2019-05-13T11:28:12.281Z,24.50
2019-05-13T11:30:38.358Z,23.80
2019-05-13T11:33:09.914Z,22.80
2019-05-13T11:35:33.030Z,21.90
2019-05-13T11:38:01.640Z,22.00
2019-05-13T11:40:27.415Z,22.80
2019-05-13T11:42:53.665Z,22.90
2019-05-13T11:45:22.308Z,22.60
2019-05-13T11:47:48.675Z,22.00
2019-05-13T11:50:15.774Z,22.00
2019-05-13T11:52:42.738Z,21.30
2019-05-13T11:55:13.033Z,22.60
2019-05-13T11:57:39.673Z,22.10
2019-05-13T12:00:12.879Z,23.10
2019-05-13T12:02:37.424Z,23.40
2019-05-13T12:05:06.340Z,23.30
2019-05-13T12:07:33.105Z,24.10
2019-05-13T12:09:59.435Z,23.80
2019-05-13T12:12:30.891Z,22.80
2019-05-13T12:15:25.494Z,22.00
2019-05-13T12:17:22.720Z,21.00
2019-05-13T12:19:49.284Z,22.00
2019-05-13T12:22:15.649Z,21.90
2019-05-13T12:24:42.432Z,22.60
2019-05-13T12:27:09.253Z,21.90
2019-05-13T12:29:36.822Z,23.90
2019-05-13T12:32:03.481Z,23.60
2019-05-13T12:34:39.507Z,22.80
2019-05-13T12:36:57.958Z,23.00
2019-05-13T12:39:24.234Z,22.70
2019-05-13T12:41:53.449Z,22.20
2019-05-13T12:44:18.532Z,21.90
2019-05-13T12:46:50.106Z,22.00
2019-05-13T12:49:14.284Z,21.50
2019-05-13T12:51:43.860Z,21.80
2019-05-13T12:54:08.909Z,21.80
2019-05-13T12:56:35.175Z,21.50
2019-05-13T12:59:03.031Z,21.50
2019-05-13T13:01:32.281Z,22.20
2019-05-13T13:03:57.529Z,23.20
2019-05-13T13:06:32.324Z,22.40
2019-05-13T13:08:52.468Z,21.70
2019-05-13T13:11:18.767Z,21.90
2019-05-13T13:14:05.278Z,22.00
2019-05-13T13:16:13.377Z,23.30
2019-05-13T13:18:43.222Z,25.70
2019-05-13T13:21:08.448Z,27.10
2019-05-13T13:23:35.047Z,27.50
2019-05-13T13:26:03.255Z,28.70
2019-05-13T13:28:33.784Z,27.40
2019-05-13T13:30:58.152Z,27.60
2019-05-13T13:33:24.406Z,26.90
2019-05-13T13:35:58.912Z,27.50
2019-05-13T13:38:24.376Z,27.10
2019-05-13T13:40:47.227Z,27.20
2019-05-13T13:43:14.786Z,27.50
2019-05-13T13:46:06.496Z,26.70
2019-05-13T13:48:12.959Z,26.40
2019-05-13T13:50:37.239Z,26.90
2019-05-13T13:53:03.540Z,27.30
2019-05-13T13:55:32.064Z,27.50
2019-05-13T13:57:57.825Z,27.10
2019-05-13T14:00:39.312Z,27.20
2019-05-13T14:02:54.255Z,27.50
2019-05-13T14:05:24.575Z,26.70
2019-05-13T14:07:48.575Z,25.40
2019-05-13T14:10:15.717Z,26.70
2019-05-13T14:12:41.983Z,29.30
2019-05-13T14:15:08.419Z,28.40
2019-05-13T14:17:35.057Z,30.10
2019-05-13T14:20:01.807Z,28.30
2019-05-13T14:22:28.250Z,27.80
2019-05-13T14:24:54.524Z,28.70
2019-05-13T14:27:22.420Z,27.80
2019-05-13T14:29:49.592Z,28.20
2019-05-13T14:32:16.912Z,28.60
2019-05-13T14:34:43.271Z,28.30
2019-05-13T14:37:11.684Z,29.70
2019-05-13T14:39:37.681Z,28.20
2019-05-13T14:42:04.025Z,28.50
2019-05-13T14:44:32.459Z,28.50
2019-05-13T14:46:58.360Z,27.90
2019-05-13T14:49:24.645Z,28.10
2019-05-13T14:51:52.274Z,27.00
2019-05-13T14:54:19.163Z,27.70
2019-05-13T14:56:45.542Z,27.20
2019-05-13T14:59:12.335Z,27.50
2019-05-13T15:01:41.173Z,26.50
2019-05-13T15:04:06.743Z,26.50
2019-05-13T15:06:33.541Z,26.00
2019-05-13T15:09:01.777Z,26.20
2019-05-13T15:11:27.828Z,26.80
2019-05-13T15:13:54.092Z,27.60
2019-05-13T15:16:22.389Z,25.60
2019-05-13T15:18:49.005Z,26.90
2019-05-13T15:21:15.239Z,25.80
2019-05-13T15:23:42.294Z,25.50
2019-05-13T15:26:11.043Z,26.80
2019-05-13T15:28:37.173Z,26.10
2019-05-13T15:31:03.532Z,26.10
2019-05-13T15:33:32.231Z,25.60
2019-05-13T15:35:57.881Z,26.30
2019-05-13T15:38:24.491Z,25.70
2019-05-13T15:40:52.220Z,26.60
2019-05-13T15:43:19.213Z,27.70
2019-05-13T15:45:45.863Z,27.30
2019-05-13T15:48:12.748Z,27.60
2019-05-13T15:50:39.255Z,26.70
2019-05-13T15:53:05.795Z,26.50
2019-05-13T15:55:32.376Z,26.90
2019-05-13T15:57:59.040Z,27.50
2019-05-13T16:00:25.864Z,27.50
2019-05-13T16:02:52.455Z,27.90
2019-05-13T16:05:18.935Z,28.40
2019-05-13T16:07:45.197Z,28.40
2019-05-13T16:10:12.269Z,28.70
2019-05-13T16:12:38.945Z,27.60
2019-05-13T16:15:12.397Z,28.20
2019-05-13T16:17:53.619Z,28.90
2019-05-13T16:20:06.315Z,29.00
2019-05-13T16:22:35.218Z,29.40
2019-05-13T16:25:04.581Z,29.50
2019-05-13T16:27:31.209Z,28.90
2019-05-13T16:29:58.840Z,28.20
2019-05-13T16:32:25.121Z,28.30
2019-05-13T16:34:52.109Z,29.20
2019-05-13T16:37:19.159Z,29.80
2019-05-13T16:39:45.435Z,30.50
2019-05-13T16:42:12.177Z,30.80
2019-05-13T16:44:39.144Z,29.20
2019-05-13T16:47:05.734Z,29.40
2019-05-13T16:49:32.405Z,29.20
2019-05-13T16:51:58.834Z,28.70
2019-05-13T16:54:25.292Z,29.10
2019-05-13T16:56:51.977Z,29.20
2019-05-13T16:59:18.493Z,29.40
2019-05-13T17:01:45.176Z,29.30
2019-05-13T17:04:12.565Z,29.80
2019-05-13T17:06:41.515Z,30.10
2019-05-13T17:09:08.037Z,29.70
2019-05-13T17:11:34.596Z,29.50
2019-05-13T17:14:03.032Z,29.10
2019-05-13T17:16:31.695Z,30.10
2019-05-13T17:18:57.947Z,30.60
2019-05-13T17:21:24.196Z,30.00
2019-05-13T17:23:52.359Z,30.00
2019-05-13T17:26:19.003Z,29.90
2019-05-13T17:28:45.603Z,30.00
2019-05-13T17:31:12.169Z,30.80
2019-05-13T17:33:38.440Z,30.20
2019-05-13T17:36:05.139Z,31.10
2019-05-13T17:38:32.255Z,30.30
2019-05-13T17:41:01.902Z,30.80
2019-05-13T17:43:27.865Z,32.10
2019-05-13T17:45:54.496Z,32.30
2019-05-13T17:48:26.707Z,31.10
2019-05-13T17:50:49.446Z,31.40
2019-05-13T17:53:16.051Z,32.20
2019-05-13T17:55:42.688Z,32.30
2019-05-13T17:58:11.491Z,32.30
2019-05-13T18:00:37.619Z,32.60
2019-05-13T18:03:04.075Z,33.00
2019-05-13T18:05:31.478Z,32.50
2019-05-13T18:07:59.179Z,32.80
2019-05-13T18:10:28.070Z,33.40
2019-05-13T18:12:54.328Z,33.90
2019-05-13T18:15:22.140Z,34.40
2019-05-13T18:17:48.548Z,34.50
2019-05-13T18:20:15.379Z,34.80
2019-05-13T18:22:42.138Z,34.80
2019-05-13T18:25:11.636Z,35.00
2019-05-13T18:27:37.998Z,35.30
2019-05-13T18:30:07.734Z,35.60
2019-05-13T18:32:34.023Z,35.70
2019-05-13T18:35:01.682Z,36.00
2019-05-13T18:37:28.645Z,36.50
2019-05-13T18:39:55.293Z,36.40
2019-05-13T18:42:22.499Z,36.50
2019-05-13T18:44:51.254Z,36.60
2019-05-13T18:47:17.221Z,37.10
2019-05-13T18:49:43.909Z,37.10
2019-05-13T18:52:11.577Z,37.20
2019-05-13T18:54:38.799Z,37.40
2019-05-13T18:57:05.510Z,36.70
2019-05-13T18:59:32.326Z,36.80
2019-05-13T19:01:58.691Z,37.10
2019-05-13T19:04:24.941Z,37.30
2019-05-13T19:06:51.772Z,37.50
2019-05-13T19:09:18.170Z,37.90
2019-05-13T19:11:44.432Z,38.40
2019-05-13T19:14:12.331Z,38.80
2019-05-13T19:16:38.735Z,39.40
2019-05-13T19:19:12.207Z,39.70
2019-05-13T19:21:33.195Z,39.90
2019-05-13T19:24:01.884Z,40.00
2019-05-13T19:26:27.487Z,40.20
2019-05-13T19:28:53.752Z,40.60
2019-05-13T19:31:22.032Z,41.30
2019-05-13T19:33:48.272Z,42.00
2019-05-13T19:36:14.908Z,42.40
2019-05-13T19:38:42.296Z,43.40
2019-05-13T19:41:09.011Z,43.90
2019-05-13T19:43:35.243Z,44.20
2019-05-13T19:46:01.911Z,44.30
2019-05-13T19:48:28.543Z,44.70
2019-05-13T19:50:54.890Z,45.10
2019-05-13T19:53:21.172Z,46.20
2019-05-13T19:55:47.439Z,46.60
2019-05-13T19:58:13.700Z,47.10
2019-05-13T20:00:42.130Z,47.70
2019-05-13T20:03:08.213Z,47.70
2019-05-13T20:05:35.042Z,47.90
2019-05-13T20:08:01.276Z,48.30
2019-05-13T20:10:27.547Z,48.50
2019-05-13T20:12:53.776Z,48.90
2019-05-13T20:15:22.077Z,49.40
2019-05-13T20:17:48.590Z,49.40
2019-05-13T20:20:15.008Z,50.10
2019-05-13T20:22:42.183Z,50.40
2019-05-13T20:25:12.993Z,50.00
2019-05-13T20:27:38.411Z,49.90
2019-05-13T20:30:05.260Z,49.60
2019-05-13T20:32:31.713Z,49.00
2019-05-13T20:34:57.961Z,49.10
2019-05-13T20:37:24.586Z,49.30
2019-05-13T20:39:51.596Z,49.20
2019-05-13T20:42:18.284Z,49.40
2019-05-13T20:44:44.884Z,49.30
2019-05-13T20:47:11.540Z,49.30
2019-05-13T20:49:38.158Z,49.40
2019-05-13T20:52:04.927Z,50.20
2019-05-13T20:54:31.621Z,50.00
2019-05-13T20:56:58.077Z,49.90
2019-05-13T20:59:24.331Z,49.60
2019-05-13T21:01:51.207Z,49.60
2019-05-13T21:04:17.955Z,49.40
2019-05-13T21:06:44.219Z,50.00
2019-05-13T21:09:14.676Z,49.70
2019-05-13T21:11:41.610Z,49.30
2019-05-13T21:14:07.426Z,49.60
2019-05-13T21:16:34.307Z,49.60
2019-05-13T21:19:01.870Z,49.60
2019-05-13T21:21:28.599Z,49.90
2019-05-13T21:23:55.200Z,50.30
2019-05-13T21:26:22.531Z,50.30
2019-05-13T21:28:48.887Z,50.50
2019-05-13T21:31:15.523Z,50.30
2019-05-13T21:33:41.739Z,50.50
2019-05-13T21:36:08.415Z,51.70
2019-05-13T21:38:35.027Z,52.00
2019-05-13T21:41:01.700Z,51.90
2019-05-13T21:43:28.050Z,51.90
2019-05-13T21:45:54.527Z,52.70
2019-05-13T21:48:21.738Z,52.80
2019-05-13T21:50:48.634Z,53.20
2019-05-13T21:53:14.931Z,53.70
2019-05-13T21:55:41.517Z,54.20
2019-05-13T21:58:07.807Z,54.50
2019-05-13T22:00:42.005Z,55.00
2019-05-13T22:03:08.440Z,55.20
2019-05-13T22:05:34.723Z,55.50
2019-05-13T22:08:01.726Z,56.00
2019-05-13T22:10:30.977Z,57.10
2019-05-13T22:12:56.907Z,57.00
2019-05-13T22:15:23.227Z,57.00
2019-05-13T22:17:51.277Z,57.80
2019-05-13T22:20:18.226Z,58.20
2019-05-13T22:22:44.488Z,58.70
2019-05-13T22:25:12.164Z,59.10
2019-05-13T22:27:41.165Z,59.20
2019-05-13T22:30:08.134Z,59.90
2019-05-13T22:32:34.587Z,60.70
2019-05-13T22:35:01.899Z,60.90
2019-05-13T22:37:31.196Z,61.80
2019-05-13T22:39:57.007Z,62.10
2019-05-13T22:42:23.615Z,62.00
2019-05-13T22:44:52.073Z,62.80
2019-05-13T22:47:18.100Z,63.10
2019-05-13T22:49:44.525Z,63.20
2019-05-13T22:52:11.435Z,63.90
2019-05-13T22:54:38.081Z,64.00
2019-05-13T22:57:05.598Z,64.00
2019-05-13T22:59:32.339Z,64.40
2019-05-13T23:01:59.212Z,64.50
2019-05-13T23:04:25.454Z,64.50
2019-05-13T23:06:52.133Z,65.10
2019-05-13T23:09:18.411Z,65.10
2019-05-13T23:11:44.644Z,65.70
2019-05-13T23:14:13.493Z,66.50
2019-05-13T23:16:41.719Z,65.90
2019-05-13T23:19:07.598Z,66.10
2019-05-13T23:21:33.931Z,66.80
2019-05-13T23:24:02.202Z,68.10
2019-05-13T23:26:28.860Z,69.30
2019-05-13T23:28:55.473Z,70.00
2019-05-13T23:31:22.960Z,70.80
2019-05-13T23:33:49.582Z,71.20
2019-05-13T23:36:16.267Z,71.40
2019-05-13T23:38:42.847Z,71.30
2019-05-13T23:41:11.489Z,71.80
2019-05-13T23:43:37.756Z,71.30
2019-05-13T23:46:05.238Z,70.80
2019-05-13T23:48:32.190Z,70.10
2019-05-13T23:51:01.191Z,69.40
2019-05-13T23:53:27.185Z,69.60
2019-05-13T23:55:53.887Z,69.70
2019-05-13T23:58:21.736Z,69.10
